Time;durP1;ratioP1;P1;durP2;ratioP2;P2;SDS_P1;SDS_P2;PMS_P1;PMS_P2;Temp;Humidity;BMP_temperature;BMP_pressure;BME280_temperature;BME280_humidity;BME280_pressure;Samples;Min_cycle;Max_cycle;Signal;HPM_P1;HPM_P2
2023/07/13 00:02:56;;;;;;;30.27;13.93;;;;;;;;;;6197697;28;20064;-60
2023/07/13 00:05:58;;;;;;;28.47;13.73;;;;;;;;;;6199007;28;20037;-60
2023/07/13 00:08:59;;;;;;;25.17;12.00;;;;;;;;;;6194202;28;20386;-60
2023/07/13 00:12:01;;;;;;;28.58;12.18;;;;;;;;;;6196323;28;20115;-60
2023/07/13 00:15:05;;;;;;;28.02;11.38;;;;;;;;;;6199652;28;20038;-61
2023/07/13 00:18:05;;;;;;;29.23;13.07;;;;;;;;;;6196748;28;20072;-60
2023/07/13 00:21:06;;;;;;;23.00;11.03;;;;;;;;;;6197218;28;20038;-60
2023/07/13 00:24:12;;;;;;;21.50;10.70;;;;;;;;;;6198352;28;20042;-60
2023/07/13 00:27:13;;;;;;;23.33;10.98;;;;;;;;;;6195121;28;20057;-60
2023/07/13 00:30:15;;;;;;;22.33;10.25;;;;;;;;;;6193686;28;20634;-60
2023/07/13 00:33:15;;;;;;;22.38;11.20;;;;;;;;;;6197436;28;20113;-60
2023/07/13 00:36:17;;;;;;;26.80;11.60;;;;;;;;;;6197875;28;20382;-60
2023/07/13 00:39:17;;;;;;;28.30;11.53;;;;;;;;;;6192695;28;20463;-60
2023/07/13 00:42:18;;;;;;;19.40;10.00;;;;;;;;;;6196752;28;20181;-60
2023/07/13 00:45:18;;;;;;;17.63;8.77;;;;;;;;;;6195299;28;20435;-60
2023/07/13 00:48:33;;;;;;;18.87;8.57;;;;;;;;;;6193195;28;20046;-60
2023/07/13 00:51:55;;;;;;;17.63;9.23;;;;;;;;;;6195444;28;20459;-60
2023/07/13 00:54:57;;;;;;;21.27;9.25;;;;;;;;;;6201058;28;20152;-60
2023/07/13 00:57:58;;;;;;;18.15;8.75;;;;;;;;;;6199013;28;20455;-60
2023/07/13 01:00:59;;;;;;;14.38;7.75;;;;;;;;;;6200996;28;20050;-60
2023/07/13 01:03:59;;;;;;;16.27;7.80;;;;;;;;;;6195760;28;20057;-60
2023/07/13 01:07:00;;;;;;;17.07;7.87;;;;;;;;;;6176186;28;20052;-59
2023/07/13 01:10:00;;;;;;;16.03;7.60;;;;;;;;;;6197049;28;20054;-60
2023/07/13 01:13:02;;;;;;;15.53;7.30;;;;;;;;;;6197914;28;20137;-60
2023/07/13 01:16:13;;;;;;;16.30;7.18;;;;;;;;;;6201025;28;20049;-60
2023/07/13 01:19:25;;;;;;;17.20;8.70;;;;;;;;;;6201480;28;20050;-59
2023/07/13 01:22:26;;;;;;;18.33;8.82;;;;;;;;;;6196818;28;20052;-60
2023/07/13 01:25:27;;;;;;;20.13;8.48;;;;;;;;;;6196572;28;20584;-60
2023/07/13 01:28:29;;;;;;;;;;;;;;;;;;6198205;28;20643;-60
2023/07/13 01:31:30;;;;;;;15.33;7.40;;;;;;;;;;6204547;28;19972;-60
2023/07/13 01:34:30;;;;;;;17.30;8.70;;;;;;;;;;6206424;28;20382;-60
2023/07/13 01:37:33;;;;;;;18.40;8.57;;;;;;;;;;6199770;28;20141;-60
2023/07/13 01:40:35;;;;;;;18.27;8.57;;;;;;;;;;6196521;28;20491;-60
2023/07/13 01:43:35;;;;;;;19.80;8.52;;;;;;;;;;6198528;28;20046;-60
2023/07/13 01:46:36;;;;;;;15.53;8.67;;;;;;;;;;6200814;28;20052;-60
2023/07/13 01:49:37;;;;;;;19.33;9.10;;;;;;;;;;6194778;28;20137;-60
2023/07/13 01:52:38;;;;;;;16.40;9.55;;;;;;;;;;6194182;28;20449;-60
2023/07/13 01:55:39;;;;;;;18.43;9.13;;;;;;;;;;6196486;28;20060;-60
2023/07/13 01:58:39;;;;;;;17.53;9.87;;;;;;;;;;6196301;28;20303;-60
2023/07/13 02:01:40;;;;;;;26.37;10.67;;;;;;;;;;6194765;28;20141;-60
2023/07/13 02:04:40;;;;;;;21.57;10.13;;;;;;;;;;6195978;28;20101;-61
2023/07/13 02:07:42;;;;;;;22.83;10.77;;;;;;;;;;6199446;28;20142;-60
2023/07/13 02:10:42;;;;;;;18.70;10.65;;;;;;;;;;6195196;28;20504;-60
2023/07/13 02:13:43;;;;;;;15.37;7.90;;;;;;;;;;6192249;28;20536;-60
2023/07/13 02:16:43;;;;;;;17.27;7.53;;;;;;;;;;6196939;28;20477;-60
2023/07/13 02:19:44;;;;;;;14.77;7.90;;;;;;;;;;6196677;28;20461;-60
2023/07/13 02:22:45;;;;;;;15.40;8.00;;;;;;;;;;6196569;28;20055;-60
2023/07/13 02:25:45;;;;;;;15.40;7.97;;;;;;;;;;6196036;28;20096;-60
2023/07/13 02:28:46;;;;;;;15.70;8.03;;;;;;;;;;6198227;28;20046;-60
2023/07/13 02:31:47;;;;;;;17.77;8.53;;;;;;;;;;6197639;28;20818;-60
2023/07/13 02:34:47;;;;;;;17.10;8.70;;;;;;;;;;6198445;28;20758;-60
2023/07/13 02:37:48;;;;;;;21.40;9.93;;;;;;;;;;6200909;28;20548;-60
2023/07/13 02:40:48;;;;;;;20.97;11.40;;;;;;;;;;6204220;28;20606;-60
2023/07/13 02:43:49;;;;;;;20.47;10.83;;;;;;;;;;6203461;28;20054;-60
2023/07/13 02:46:50;;;;;;;22.63;10.60;;;;;;;;;;6198702;28;20054;-60
2023/07/13 02:49:50;;;;;;;21.67;10.80;;;;;;;;;;6200364;28;20133;-60
2023/07/13 02:52:51;;;;;;;22.90;11.03;;;;;;;;;;6200742;28;20056;-60
2023/07/13 02:55:52;;;;;;;21.33;11.27;;;;;;;;;;6200393;28;20501;-60
2023/07/13 02:58:54;;;;;;;26.00;12.50;;;;;;;;;;6199761;28;20046;-60
2023/07/13 03:01:55;;;;;;;21.30;11.80;;;;;;;;;;6196212;28;20046;-60
2023/07/13 03:04:56;;;;;;;25.40;12.17;;;;;;;;;;6198324;28;20070;-60
2023/07/13 03:07:57;;;;;;;22.17;11.03;;;;;;;;;;6201400;28;20041;-60
2023/07/13 03:11:02;;;;;;;22.73;11.93;;;;;;;;;;6198011;28;20315;-60
2023/07/13 03:14:03;;;;;;;25.38;13.23;;;;;;;;;;6200578;28;20133;-60
2023/07/13 03:17:04;;;;;;;28.90;14.43;;;;;;;;;;6200104;28;20555;-60
2023/07/13 03:20:07;;;;;;;27.67;13.50;;;;;;;;;;6196531;28;20042;-61
2023/07/13 03:23:07;;;;;;;26.50;13.52;;;;;;;;;;6199119;28;20054;-60
2023/07/13 03:26:17;;;;;;;27.30;12.57;;;;;;;;;;6202270;28;20484;-60
2023/07/13 03:29:17;;;;;;;27.52;13.75;;;;;;;;;;6203385;28;20042;-60
2023/07/13 03:32:18;;;;;;;25.03;13.50;;;;;;;;;;6199409;28;20053;-60
2023/07/13 03:35:19;;;;;;;26.13;12.97;;;;;;;;;;6202538;28;20046;-60
2023/07/13 03:38:19;;;;;;;27.57;13.40;;;;;;;;;;6202180;28;20062;-60
2023/07/13 03:41:21;;;;;;;26.67;12.87;;;;;;;;;;6199201;28;20100;-60
2023/07/13 03:44:22;;;;;;;25.48;12.38;;;;;;;;;;6200931;28;22264;-60
2023/07/13 03:47:22;;;;;;;25.37;12.93;;;;;;;;;;6201218;28;20484;-60
2023/07/13 03:50:23;;;;;;;26.50;13.30;;;;;;;;;;6199742;28;20093;-60
2023/07/13 03:53:23;;;;;;;24.30;12.17;;;;;;;;;;6200787;28;20057;-60
2023/07/13 03:56:24;;;;;;;26.13;12.23;;;;;;;;;;6201305;28;20146;-60
2023/07/13 03:59:25;;;;;;;24.00;12.77;;;;;;;;;;6198167;28;20462;-60
2023/07/13 04:02:25;;;;;;;21.17;12.00;;;;;;;;;;6205296;28;20050;-60
2023/07/13 04:05:26;;;;;;;27.93;12.57;;;;;;;;;;6198572;28;20050;-60
2023/07/13 04:08:28;;;;;;;24.37;11.80;;;;;;;;;;6201567;28;20129;-60
2023/07/13 04:11:31;;;;;;;25.30;12.13;;;;;;;;;;6197360;28;20065;-60
2023/07/13 04:14:32;;;;;;;25.40;12.57;;;;;;;;;;6208021;28;20045;-60
2023/07/13 04:17:33;;;;;;;25.63;12.32;;;;;;;;;;6200577;28;20054;-60
2023/07/13 04:20:33;;;;;;;24.23;13.40;;;;;;;;;;6199829;28;20185;-60
2023/07/13 04:23:34;;;;;;;28.37;12.90;;;;;;;;;;6198861;28;20097;-60
2023/07/13 04:26:36;;;;;;;26.85;13.43;;;;;;;;;;6209565;28;20528;-60
2023/07/13 04:29:36;;;;;;;25.37;13.00;;;;;;;;;;6199007;28;20041;-60
2023/07/13 04:32:37;;;;;;;32.13;13.45;;;;;;;;;;6199483;28;20046;-60
2023/07/13 04:35:37;;;;;;;27.70;12.43;;;;;;;;;;6201059;28;20085;-60
2023/07/13 04:38:38;;;;;;;26.80;13.73;;;;;;;;;;6195298;28;20073;-60
2023/07/13 04:41:39;;;;;;;33.77;14.03;;;;;;;;;;6199038;28;20426;-60
2023/07/13 04:44:39;;;;;;;33.73;16.07;;;;;;;;;;6200260;28;20136;-60
2023/07/13 04:47:40;;;;;;;36.23;18.33;;;;;;;;;;6197928;28;20490;-60
2023/07/13 04:50:42;;;;;;;29.95;15.40;;;;;;;;;;6200565;28;20163;-60
2023/07/13 04:53:43;;;;;;;32.35;15.65;;;;;;;;;;6195557;28;20145;-61
2023/07/13 04:56:44;;;;;;;33.97;15.23;;;;;;;;;;6200542;28;20060;-60
2023/07/13 04:59:44;;;;;;;35.13;15.23;;;;;;;;;;6200713;28;20453;-60
2023/07/13 05:02:45;;;;;;;30.70;15.37;;;;;;;;;;6198190;28;20062;-61
2023/07/13 05:06:01;;;;;;;33.57;14.97;;;;;;;;;;6199400;28;20042;-60
2023/07/13 05:09:03;;;;;;;29.73;14.80;;;;;;;;;;6205563;28;20058;-60
2023/07/13 05:12:03;;;;;;;26.95;13.65;;;;;;;;;;6212748;28;20086;-61
2023/07/13 05:15:05;;;;;;;26.23;12.73;;;;;;;;;;6199071;28;20133;-60
2023/07/13 05:18:05;;;;;;;30.15;13.55;;;;;;;;;;6199573;28;20310;-60
2023/07/13 05:21:08;;;;;;;28.50;13.03;;;;;;;;;;6197841;28;20042;-61
2023/07/13 05:24:08;;;;;;;25.63;12.27;;;;;;;;;;6206726;28;20382;-61
2023/07/13 05:27:09;;;;;;;21.83;11.90;;;;;;;;;;6208162;28;20057;-60
2023/07/13 05:30:11;;;;;;;25.07;12.60;;;;;;;;;;6203882;28;20121;-61
2023/07/13 05:33:12;;;;;;;27.05;12.73;;;;;;;;;;6206058;28;20062;-60
2023/07/13 05:36:13;;;;;;;29.13;13.10;;;;;;;;;;6207498;28;20065;-61
2023/07/13 05:39:14;;;;;;;21.00;11.60;;;;;;;;;;6201381;28;21007;-60
2023/07/13 05:42:14;;;;;;;25.60;12.77;;;;;;;;;;6212000;28;20076;-60
2023/07/13 05:45:15;;;;;;;28.87;13.30;;;;;;;;;;6202567;28;20545;-59
2023/07/13 05:48:15;;;;;;;33.30;14.67;;;;;;;;;;6196367;28;20092;-60
2023/07/13 05:51:16;;;;;;;35.00;17.53;;;;;;;;;;6196814;28;20060;-60
2023/07/13 05:54:17;;;;;;;38.80;18.67;;;;;;;;;;6192906;28;20097;-60
2023/07/13 05:57:18;;;;;;;37.55;17.15;;;;;;;;;;6196027;28;20069;-60
2023/07/13 06:00:18;;;;;;;30.43;17.30;;;;;;;;;;6194662;28;20050;-60
2023/07/13 06:03:19;;;;;;;39.45;17.58;;;;;;;;;;6195490;28;20441;-60
2023/07/13 06:06:20;;;;;;;41.63;17.33;;;;;;;;;;6197070;28;20083;-60
2023/07/13 06:09:21;;;;;;;41.33;18.50;;;;;;;;;;6217001;28;20044;-60
2023/07/13 06:12:22;;;;;;;40.97;19.60;;;;;;;;;;6204059;28;20099;-60
2023/07/13 06:15:22;;;;;;;45.05;19.30;;;;;;;;;;6203796;28;20053;-60
2023/07/13 06:18:23;;;;;;;40.97;19.17;;;;;;;;;;6206996;28;20038;-60
2023/07/13 06:21:24;;;;;;;40.47;19.20;;;;;;;;;;6204553;28;20101;-60
2023/07/13 06:24:25;;;;;;;41.13;19.27;;;;;;;;;;6201037;28;20038;-60
2023/07/13 06:27:26;;;;;;;38.97;19.20;;;;;;;;;;6213078;28;20037;-60
2023/07/13 06:30:26;;;;;;;50.03;20.90;;;;;;;;;;6212709;28;20760;-60
2023/07/13 06:33:27;;;;;;;47.67;21.80;;;;;;;;;;6214150;28;20065;-61
2023/07/13 06:36:28;;;;;;;57.83;23.17;;;;;;;;;;6212373;28;20485;-60
2023/07/13 06:39:28;;;;;;;46.50;20.37;;;;;;;;;;6211259;28;20131;-61
2023/07/13 06:42:29;;;;;;;50.93;21.37;;;;;;;;;;6207917;28;20054;-61
2023/07/13 06:45:29;;;;;;;37.47;17.93;;;;;;;;;;6199707;28;20089;-61
2023/07/13 06:48:30;;;;;;;34.70;16.43;;;;;;;;;;6200552;28;20042;-62
2023/07/13 06:51:31;;;;;;;36.87;16.90;;;;;;;;;;6211909;28;20077;-61
2023/07/13 06:54:31;;;;;;;36.63;17.63;;;;;;;;;;6199195;28;20639;-60
2023/07/13 06:57:32;;;;;;;34.67;15.57;;;;;;;;;;6213672;28;20679;-61
2023/07/13 07:00:32;;;;;;;42.37;17.83;;;;;;;;;;6208626;28;20053;-60
2023/07/13 07:03:33;;;;;;;39.00;17.93;;;;;;;;;;6213241;28;20054;-62
2023/07/13 07:06:33;;;;;;;44.30;17.47;;;;;;;;;;6210231;28;20046;-61
2023/07/13 07:09:34;;;;;;;36.50;17.97;;;;;;;;;;6223560;28;20103;-60
2023/07/13 07:12:35;;;;;;;35.70;17.87;;;;;;;;;;6223471;28;20049;-61
2023/07/13 07:15:35;;;;;;;34.03;17.27;;;;;;;;;;6210506;28;20050;-61
2023/07/13 07:18:36;;;;;;;37.50;16.70;;;;;;;;;;6209944;28;20103;-60
2023/07/13 07:21:37;;;;;;;40.08;16.63;;;;;;;;;;6217754;28;20054;-58
2023/07/13 07:24:37;;;;;;;32.90;17.20;;;;;;;;;;6208566;28;20133;-61
2023/07/13 07:27:38;;;;;;;38.27;17.03;;;;;;;;;;6198630;28;20056;-60
2023/07/13 07:30:43;;;;;;;35.93;17.50;;;;;;;;;;6207756;28;20058;-60
2023/07/13 07:33:44;;;;;;;36.65;17.95;;;;;;;;;;6215625;28;20520;-60
2023/07/13 07:36:45;;;;;;;35.05;15.68;;;;;;;;;;6204477;28;20041;-61
2023/07/13 07:39:45;;;;;;;38.53;15.50;;;;;;;;;;6208146;28;20413;-60
2023/07/13 07:42:46;;;;;;;32.53;16.33;;;;;;;;;;6197785;28;20054;-60
2023/07/13 07:45:47;;;;;;;36.33;16.37;;;;;;;;;;6197287;28;20042;-60
2023/07/13 07:48:47;;;;;;;30.27;15.37;;;;;;;;;;6199118;28;20172;-60
2023/07/13 07:51:48;;;;;;;33.33;16.90;;;;;;;;;;6197490;28;20080;-60
2023/07/13 07:54:48;;;;;;;37.27;18.43;;;;;;;;;;6197725;28;20034;-60
2023/07/13 07:57:49;;;;;;;35.10;17.53;;;;;;;;;;6198839;28;20038;-58
2023/07/13 08:00:50;;;;;;;45.80;21.13;;;;;;;;;;6198318;28;20061;-60
2023/07/13 08:03:50;;;;;;;39.77;17.73;;;;;;;;;;6198160;28;20101;-60
2023/07/13 08:06:51;;;;;;;36.47;17.10;;;;;;;;;;6198424;28;20555;-60
2023/07/13 08:09:52;;;;;;;37.10;17.73;;;;;;;;;;6198119;28;20046;-60
2023/07/13 08:12:53;;;;;;;;;;;;;;;;;;6197174;28;20046;-60
2023/07/13 08:15:54;;;;;;;35.80;18.80;;;;;;;;;;6198009;28;20416;-60
2023/07/13 08:18:54;;;;;;;40.57;19.40;;;;;;;;;;6198757;28;20057;-60
2023/07/13 08:21:55;;;;;;;42.78;18.23;;;;;;;;;;6194331;28;20057;-60
2023/07/13 08:24:55;;;;;;;36.30;18.10;;;;;;;;;;6194437;28;20046;-60
2023/07/13 08:27:56;;;;;;;38.23;17.50;;;;;;;;;;6198596;28;20054;-60
2023/07/13 08:31:01;;;;;;;31.33;16.70;;;;;;;;;;6202275;28;20054;-60
2023/07/13 08:34:02;;;;;;;37.35;16.77;;;;;;;;;;6200216;28;20527;-61
2023/07/13 08:37:03;;;;;;;35.83;16.20;;;;;;;;;;6209296;28;20052;-53
2023/07/13 08:40:04;;;;;;;30.88;14.95;;;;;;;;;;6200065;28;20104;-61
2023/07/13 08:43:04;;;;;;;38.28;15.18;;;;;;;;;;6191321;28;20042;-61
2023/07/13 08:46:35;;;;;;;32.33;16.43;;;;;;;;;;6203231;28;20061;-61
2023/07/13 08:49:36;;;;;;;34.83;16.33;;;;;;;;;;6193999;28;20108;-60
2023/07/13 08:52:43;;;;;;;33.60;15.82;;;;;;;;;;6202258;28;20054;-61
2023/07/13 08:55:44;;;;;;;31.92;15.40;;;;;;;;;;6204905;28;20107;-61
2023/07/13 08:58:48;;;;;;;30.98;16.10;;;;;;;;;;6207290;28;20129;-60
2023/07/13 09:02:27;;;;;;;33.22;15.10;;;;;;;;;;6194141;28;20391;-60
2023/07/13 09:05:38;;;;;;;31.63;15.88;;;;;;;;;;6201172;28;20481;-60
2023/07/13 09:09:01;;;;;;;30.30;15.25;;;;;;;;;;6193030;28;20042;-59
2023/07/13 09:12:11;;;;;;;30.60;14.18;;;;;;;;;;6193711;28;20042;-60
2023/07/13 09:15:25;;;;;;;29.42;14.18;;;;;;;;;;6200365;28;20300;-60
2023/07/13 09:18:37;;;;;;;28.73;13.93;;;;;;;;;;6203456;28;20054;-60
2023/07/13 09:21:40;;;;;;;;;;;;;;;;;;6215378;28;20172;-60
2023/07/13 09:25:06;;;;;;;27.55;12.85;;;;;;;;;;6205780;28;19925;-59
2023/07/13 09:28:20;;;;;;;21.77;12.40;;;;;;;;;;6217689;28;20049;-59
2023/07/13 09:31:34;;;;;;;29.27;13.75;;;;;;;;;;6217699;28;20575;-60
2023/07/13 09:34:35;;;;;;;24.58;13.25;;;;;;;;;;6214420;28;20176;-60
2023/07/13 09:37:37;;;;;;;25.47;13.57;;;;;;;;;;6201971;28;20520;-59
2023/07/13 09:40:52;;;;;;;30.45;14.30;;;;;;;;;;6203488;28;20045;-59
2023/07/13 09:44:11;;;;;;;25.23;13.57;;;;;;;;;;6216011;28;20046;-60
2023/07/13 09:47:23;;;;;;;25.48;13.70;;;;;;;;;;6199625;28;20038;-60
2023/07/13 09:50:23;;;;;;;27.23;13.98;;;;;;;;;;6190130;28;20417;-60
2023/07/13 09:53:30;;;;;;;26.30;13.73;;;;;;;;;;6197485;28;20104;-60
2023/07/13 09:56:32;;;;;;;30.42;16.45;;;;;;;;;;6193895;28;20062;-61
2023/07/13 09:59:36;;;;;;;42.05;22.77;;;;;;;;;;6198248;28;20927;-60
2023/07/13 10:02:37;;;;;;;50.47;23.95;;;;;;;;;;6195777;28;20077;-61
2023/07/13 10:05:40;;;;;;;38.40;23.83;;;;;;;;;;6195189;28;20046;-57
2023/07/13 10:08:41;;;;;;;43.78;24.02;;;;;;;;;;6197485;28;20526;-60
2023/07/13 10:11:42;;;;;;;35.27;21.70;;;;;;;;;;6199388;28;20054;-60
2023/07/13 10:14:43;;;;;;;39.13;19.60;;;;;;;;;;6191182;28;20049;-64
2023/07/13 10:17:45;;;;;;;23.43;14.17;;;;;;;;;;6188633;28;20501;-60
2023/07/13 10:20:45;;;;;;;26.23;12.70;;;;;;;;;;6198741;28;20184;-57
2023/07/13 10:23:51;;;;;;;25.03;11.83;;;;;;;;;;6200852;28;20054;-59
2023/07/13 10:26:57;;;;;;;24.40;12.73;;;;;;;;;;6192494;28;20065;-60
2023/07/13 10:30:11;;;;;;;22.95;11.40;;;;;;;;;;6197097;28;20058;-60
2023/07/13 10:33:13;;;;;;;19.55;10.93;;;;;;;;;;6193443;28;20050;-60
2023/07/13 10:36:24;;;;;;;23.35;11.52;;;;;;;;;;6192148;28;20069;-60
2023/07/13 10:39:28;;;;;;;19.08;9.57;;;;;;;;;;6197817;28;20149;-60
2023/07/13 10:42:39;;;;;;;18.95;9.10;;;;;;;;;;6195499;28;20059;-58
2023/07/13 10:45:40;;;;;;;17.00;9.02;;;;;;;;;;6201209;28;20049;-59
2023/07/13 10:48:43;;;;;;;16.13;7.23;;;;;;;;;;6196753;28;20065;-61
2023/07/13 10:51:44;;;;;;;15.73;7.40;;;;;;;;;;6193263;28;20089;-61
2023/07/13 10:54:46;;;;;;;17.23;7.83;;;;;;;;;;6201090;28;20093;-60
2023/07/13 10:57:47;;;;;;;17.40;7.25;;;;;;;;;;6194698;28;20050;-59
2023/07/13 11:01:05;;;;;;;16.42;7.88;;;;;;;;;;6197521;28;20533;-61
2023/07/13 11:04:12;;;;;;;18.38;7.85;;;;;;;;;;6199729;28;20141;-55
2023/07/13 11:07:28;;;;;;;20.42;8.20;;;;;;;;;;6201523;28;20073;-57
2023/07/13 11:10:49;;;;;;;19.83;8.05;;;;;;;;;;6196105;28;20184;-61
2023/07/13 11:13:49;;;;;;;15.77;7.60;;;;;;;;;;6197107;28;20061;-61
2023/07/13 11:16:50;;;;;;;15.13;7.80;;;;;;;;;;6196092;28;20057;-59
2023/07/13 11:19:53;;;;;;;17.20;8.20;;;;;;;;;;6198206;28;20054;-59
2023/07/13 11:23:12;;;;;;;15.02;7.05;;;;;;;;;;6203571;28;20490;-61
2023/07/13 11:26:38;;;;;;;16.67;7.03;;;;;;;;;;6193174;28;20052;-60
2023/07/13 11:29:40;;;;;;;14.00;7.35;;;;;;;;;;6201340;28;20065;-59
2023/07/13 11:32:41;;;;;;;13.60;6.77;;;;;;;;;;6201167;28;20053;-59
2023/07/13 11:35:49;;;;;;;17.97;7.17;;;;;;;;;;6198607;28;20046;-60
2023/07/13 11:39:12;;;;;;;15.95;7.20;;;;;;;;;;6196934;28;20042;-60
2023/07/13 11:42:16;;;;;;;17.50;7.82;;;;;;;;;;6198756;28;20042;-59
2023/07/13 11:45:22;;;;;;;14.57;6.95;;;;;;;;;;6195410;28;20560;-60
2023/07/13 11:48:28;;;;;;;15.35;7.47;;;;;;;;;;6193036;28;20054;-59
2023/07/13 11:51:35;;;;;;;14.30;7.47;;;;;;;;;;6197290;28;20060;-59
2023/07/13 11:54:53;;;;;;;14.88;7.10;;;;;;;;;;6201400;28;20058;-59
2023/07/13 11:57:59;;;;;;;13.52;6.25;;;;;;;;;;6194237;28;20042;-60
2023/07/13 12:01:04;;;;;;;14.82;7.28;;;;;;;;;;6195505;28;20544;-59
2023/07/13 12:04:06;;;;;;;19.25;8.05;;;;;;;;;;6197409;28;20053;-59
2023/07/13 12:07:15;;;;;;;18.10;9.02;;;;;;;;;;6197260;28;20138;-60
2023/07/13 12:10:22;;;;;;;19.15;9.20;;;;;;;;;;6195320;28;20058;-60
2023/07/13 12:13:22;;;;;;;19.95;9.40;;;;;;;;;;6196890;28;20050;-60
2023/07/13 12:16:28;;;;;;;17.40;8.97;;;;;;;;;;6196613;28;20417;-59
2023/07/13 12:19:29;;;;;;;20.10;7.50;;;;;;;;;;6196857;28;20056;-60
2023/07/13 12:22:30;;;;;;;12.93;7.97;;;;;;;;;;6195430;28;20058;-60
2023/07/13 12:25:30;;;;;;;13.93;6.53;;;;;;;;;;6195785;28;21015;-60
2023/07/13 12:28:47;;;;;;;14.77;7.00;;;;;;;;;;6195994;28;20510;-60
2023/07/13 12:31:49;;;;;;;14.38;7.60;;;;;;;;;;6194243;28;20078;-60
2023/07/13 12:34:55;;;;;;;17.05;7.55;;;;;;;;;;6194626;28;20057;-60
2023/07/13 12:38:00;;;;;;;15.38;7.50;;;;;;;;;;6192695;28;20046;-60
2023/07/13 12:41:03;;;;;;;15.55;7.53;;;;;;;;;;6195714;28;20043;-60
2023/07/13 12:44:08;;;;;;;17.98;7.35;;;;;;;;;;6195300;28;20718;-60
2023/07/13 12:47:13;;;;;;;13.32;6.97;;;;;;;;;;6199957;28;20057;-60
2023/07/13 12:50:23;;;;;;;11.70;5.90;;;;;;;;;;6200890;28;20050;-60
2023/07/13 12:53:33;;;;;;;16.38;6.80;;;;;;;;;;6197295;28;20049;-60
2023/07/13 12:56:33;;;;;;;13.70;6.57;;;;;;;;;;6200165;28;20044;-60
2023/07/13 12:59:36;;;;;;;14.33;6.87;;;;;;;;;;6196943;28;20046;-60
2023/07/13 13:02:37;;;;;;;13.63;6.80;;;;;;;;;;6197868;28;20058;-61
2023/07/13 13:05:37;;;;;;;13.60;6.70;;;;;;;;;;6193350;28;20548;-60
2023/07/13 13:08:40;;;;;;;14.20;6.40;;;;;;;;;;6197211;28;20073;-60
2023/07/13 13:11:41;;;;;;;14.70;7.00;;;;;;;;;;6201849;28;20140;-60
2023/07/13 13:14:43;;;;;;;13.75;7.30;;;;;;;;;;6194771;28;20516;-60
2023/07/13 13:17:44;;;;;;;12.15;6.55;;;;;;;;;;6201389;28;20073;-60
2023/07/13 13:20:46;;;;;;;13.03;7.03;;;;;;;;;;6198182;28;20045;-60
2023/07/13 13:23:46;;;;;;;;;;;;;;;;;;6198362;28;20413;-59
2023/07/13 13:26:48;;;;;;;13.18;6.60;;;;;;;;;;6199101;28;19925;-60
2023/07/13 13:29:52;;;;;;;12.95;6.80;;;;;;;;;;6195144;28;20452;-60
2023/07/13 13:32:52;;;;;;;13.35;6.45;;;;;;;;;;6197454;28;20128;-61
2023/07/13 13:35:53;;;;;;;13.47;7.77;;;;;;;;;;6199420;28;20038;-60
2023/07/13 13:38:53;;;;;;;16.77;8.63;;;;;;;;;;6196389;28;20065;-60
2023/07/13 13:41:54;;;;;;;13.00;8.47;;;;;;;;;;6196406;28;20042;-60
2023/07/13 13:44:56;;;;;;;14.10;8.90;;;;;;;;;;6195946;28;20129;-59
2023/07/13 13:47:57;;;;;;;12.10;8.43;;;;;;;;;;6208894;28;20416;-60
2023/07/13 13:50:59;;;;;;;13.97;8.63;;;;;;;;;;6207342;28;20153;-60
2023/07/13 13:54:01;;;;;;;15.63;8.80;;;;;;;;;;6192891;28;20050;-60
2023/07/13 13:57:02;;;;;;;19.83;10.55;;;;;;;;;;6197067;28;21173;-60
2023/07/13 14:00:03;;;;;;;20.80;12.50;;;;;;;;;;6196087;28;20038;-60
2023/07/13 14:03:14;;;;;;;21.25;12.93;;;;;;;;;;6196523;28;20078;-59
2023/07/13 14:06:15;;;;;;;19.27;12.90;;;;;;;;;;6196570;28;20042;-60
2023/07/13 14:09:19;;;;;;;20.42;12.38;;;;;;;;;;6198336;28;20551;-60
2023/07/13 14:12:20;;;;;;;21.58;13.20;;;;;;;;;;6196158;28;20054;-60
2023/07/13 14:15:25;;;;;;;19.55;12.68;;;;;;;;;;6198484;28;20050;-60
2023/07/13 14:18:25;;;;;;;19.48;12.88;;;;;;;;;;6199128;28;20070;-60
2023/07/13 14:21:28;;;;;;;20.30;13.03;;;;;;;;;;6199018;28;20038;-59
2023/07/13 14:24:29;;;;;;;19.23;11.40;;;;;;;;;;6196454;28;20057;-61
2023/07/13 14:27:29;;;;;;;17.23;10.93;;;;;;;;;;6196591;28;20082;-60
2023/07/13 14:30:30;;;;;;;16.87;10.77;;;;;;;;;;6197458;28;21497;-60
2023/07/13 14:33:33;;;;;;;16.13;9.20;;;;;;;;;;6200360;28;20480;-60
2023/07/13 14:36:39;;;;;;;14.05;8.70;;;;;;;;;;6198867;28;20485;-60
2023/07/13 14:39:42;;;;;;;12.65;7.68;;;;;;;;;;6200843;28;20483;-60
2023/07/13 14:42:43;;;;;;;12.15;7.25;;;;;;;;;;6193896;28;20061;-57
2023/07/13 14:45:50;;;;;;;13.63;7.63;;;;;;;;;;6205519;28;20069;-57
2023/07/13 14:48:50;;;;;;;12.52;7.82;;;;;;;;;;6210360;28;20145;-56
2023/07/13 14:51:52;;;;;;;15.57;7.80;;;;;;;;;;6219956;28;20456;-58
2023/07/13 14:54:53;;;;;;;13.07;6.93;;;;;;;;;;6193980;28;20077;-57
2023/07/13 14:57:54;;;;;;;11.73;7.10;;;;;;;;;;6210820;28;20050;-58
2023/07/13 15:00:57;;;;;;;11.33;7.20;;;;;;;;;;6203435;28;20046;-60
2023/07/13 15:03:58;;;;;;;13.85;7.97;;;;;;;;;;6215358;28;20038;-60
2023/07/13 15:07:02;;;;;;;15.23;8.33;;;;;;;;;;6219156;28;20456;-60
2023/07/13 15:10:14;;;;;;;14.00;7.90;;;;;;;;;;6221529;28;20046;-61
2023/07/13 15:13:19;;;;;;;14.02;7.88;;;;;;;;;;6213275;28;20046;-60
2023/07/13 15:16:25;;;;;;;11.00;6.88;;;;;;;;;;6220469;28;20141;-60
2023/07/13 15:19:26;;;;;;;12.00;6.97;;;;;;;;;;6219355;28;20502;-61
2023/07/13 15:22:26;;;;;;;13.02;7.38;;;;;;;;;;6214390;28;20045;-60
2023/07/13 15:25:30;;;;;;;10.80;7.50;;;;;;;;;;6213591;28;20096;-60
2023/07/13 15:28:30;;;;;;;12.82;8.10;;;;;;;;;;6207501;28;20053;-62
2023/07/13 15:31:32;;;;;;;12.20;7.37;;;;;;;;;;6211678;28;20038;-60
2023/07/13 15:34:33;;;;;;;11.95;8.05;;;;;;;;;;6208127;28;20495;-58
2023/07/13 15:37:34;;;;;;;10.77;8.20;;;;;;;;;;6215357;28;20050;-63
2023/07/13 15:40:34;;;;;;;11.88;8.60;;;;;;;;;;6204803;28;20046;-61
2023/07/13 15:43:35;;;;;;;11.13;8.27;;;;;;;;;;6216979;28;20488;-61
2023/07/13 15:46:36;;;;;;;12.60;8.90;;;;;;;;;;6219349;28;20121;-61
2023/07/13 15:49:36;;;;;;;10.93;8.17;;;;;;;;;;6213263;28;20522;-61
2023/07/13 15:52:37;;;;;;;14.83;9.70;;;;;;;;;;6217006;28;20568;-61
2023/07/13 15:55:39;;;;;;;14.63;8.90;;;;;;;;;;6220100;28;20045;-60
2023/07/13 15:58:40;;;;;;;13.70;9.50;;;;;;;;;;6217838;28;20166;-61
2023/07/13 16:01:41;;;;;;;13.43;9.63;;;;;;;;;;6204229;28;20049;-61
2023/07/13 16:04:42;;;;;;;;;;;;;;;;;;6204094;28;20054;-62
2023/07/13 16:07:45;;;;;;;12.43;8.68;;;;;;;;;;6208425;28;19938;-57
2023/07/13 16:10:46;;;;;;;14.95;9.48;;;;;;;;;;6198226;28;20137;-59
2023/07/13 16:13:53;;;;;;;15.95;9.88;;;;;;;;;;6211723;28;20056;-59
2023/07/13 16:16:55;;;;;;;16.65;9.80;;;;;;;;;;6208642;28;20165;-60
2023/07/13 16:19:56;;;;;;;16.90;10.38;;;;;;;;;;6201343;28;20058;-60
2023/07/13 16:22:56;;;;;;;18.83;10.98;;;;;;;;;;6208725;28;20037;-62
2023/07/13 16:25:57;;;;;;;19.83;11.97;;;;;;;;;;6219319;28;20056;-61
2023/07/13 16:29:01;;;;;;;19.63;11.70;;;;;;;;;;6207447;28;20042;-56
2023/07/13 16:32:07;;;;;;;17.63;10.95;;;;;;;;;;6211284;28;20482;-60
2023/07/13 16:35:08;;;;;;;16.77;11.10;;;;;;;;;;6216581;28;20424;-55
2023/07/13 16:38:15;;;;;;;19.58;12.15;;;;;;;;;;6214746;28;20054;-54
2023/07/13 16:41:16;;;;;;;17.52;10.65;;;;;;;;;;6205831;28;20400;-62
2023/07/13 16:44:20;;;;;;;17.07;10.73;;;;;;;;;;6211943;28;20054;-62
2023/07/13 16:47:25;;;;;;;18.08;10.80;;;;;;;;;;6216968;28;20046;-61
2023/07/13 16:50:31;;;;;;;17.90;10.50;;;;;;;;;;6216867;28;20493;-61
2023/07/13 16:53:33;;;;;;;17.00;11.35;;;;;;;;;;6214911;28;20547;-61
2023/07/13 16:56:34;;;;;;;19.38;10.82;;;;;;;;;;6216929;28;20125;-60
2023/07/13 16:59:35;;;;;;;17.40;10.93;;;;;;;;;;6217006;28;20516;-62
2023/07/13 17:02:38;;;;;;;22.98;12.93;;;;;;;;;;6215670;28;20064;-62
2023/07/13 17:05:45;;;;;;;22.52;13.23;;;;;;;;;;6215821;28;20046;-61
2023/07/13 17:08:45;;;;;;;19.77;12.25;;;;;;;;;;6216841;28;20524;-61
2023/07/13 17:11:46;;;;;;;18.83;11.57;;;;;;;;;;6208999;28;20141;-60
2023/07/13 17:14:47;;;;;;;19.70;11.10;;;;;;;;;;6210059;28;20112;-60
2023/07/13 17:17:49;;;;;;;23.50;11.57;;;;;;;;;;6215674;28;20058;-60
2023/07/13 17:20:51;;;;;;;19.23;11.43;;;;;;;;;;6194442;28;20579;-55
2023/07/13 17:23:52;;;;;;;19.38;11.65;;;;;;;;;;6195196;28;20452;-61
2023/07/13 17:26:54;;;;;;;19.37;11.93;;;;;;;;;;6195415;28;20493;-60
2023/07/13 17:29:56;;;;;;;23.35;12.32;;;;;;;;;;6201061;28;20072;-60
2023/07/13 17:32:57;;;;;;;;;;;;;;;;;;6191378;28;20042;-59
2023/07/13 17:36:00;;;;;;;21.38;12.82;;;;;;;;;;6198674;28;19932;-61
2023/07/13 17:39:04;;;;;;;22.02;12.18;;;;;;;;;;6196116;28;20059;-61
2023/07/13 17:42:05;;;;;;;21.15;12.43;;;;;;;;;;6196747;28;20464;-61
2023/07/13 17:45:07;;;;;;;21.33;11.30;;;;;;;;;;6193937;28;20596;-60
2023/07/13 17:48:10;;;;;;;;;;;;;;;;;;6199019;28;20253;-61
2023/07/13 17:51:13;;;;;;;21.73;12.68;;;;;;;;;;6193061;28;19936;-61
2023/07/13 17:54:16;;;;;;;23.00;13.48;;;;;;;;;;6197715;28;20764;-60